Time;durP1;ratioP1;P1;durP2;ratioP2;P2;SDS_P1;SDS_P2;PMS_P1;PMS_P2;Temp;Humidity;BMP_temperature;BMP_pressure;BME280_temperature;BME280_humidity;BME280_pressure;Samples;Min_cycle;Max_cycle;Signal;HPM_P1;HPM_P2
2021/10/18 00:00:58;;;;;;;;;27.00;23.50;;;;;14.47;53.53;101481.97;2092730;28;47299;-50
2021/10/18 00:01:59;;;;;;;;;22.25;21.25;;;;;14.46;53.29;101483.78;2083564;28;48001;-52
2021/10/18 00:02:59;;;;;;;;;28.00;26.50;;;;;14.46;53.38;101490.91;2083697;28;47913;-50
2021/10/18 00:04:00;;;;;;;;;25.25;24.25;;;;;14.46;53.46;101488.22;2091701;28;46312;-52
2021/10/18 00:05:01;;;;;;;;;24.00;24.00;;;;;14.47;53.50;101492.66;2067234;28;47007;-49
2021/10/18 00:06:01;;;;;;;;;23.00;21.50;;;;;14.46;53.83;101490.91;2070709;28;47295;-48
2021/10/18 00:07:02;;;;;;;;;23.75;23.25;;;;;14.46;53.76;101490.91;2092462;28;46895;-49
2021/10/18 00:08:03;;;;;;;;;28.25;27.00;;;;;14.45;53.55;101490.03;2084848;28;48509;-49
2021/10/18 00:09:03;;;;;;;;;21.00;20.25;;;;;14.46;53.83;101489.09;2084227;28;47119;-50
2021/10/18 00:10:08;;;;;;;;;22.50;22.00;;;;;14.47;53.57;101496.19;2083560;28;48073;-51
2021/10/18 00:11:09;;;;;;;;;22.60;21.20;;;;;14.45;53.52;101490.03;2079380;28;47319;-54
2021/10/18 00:12:09;;;;;;;;;23.75;23.00;;;;;14.45;53.56;101489.16;2082265;28;48193;-47
2021/10/18 00:13:10;;;;;;;;;26.00;25.25;;;;;14.45;53.53;101492.69;2084284;28;45355;-49
2021/10/18 00:14:11;;;;;;;;;24.75;23.75;;;;;14.45;53.87;101494.50;2080123;28;47668;-49
2021/10/18 00:15:16;;;;;;;;;22.25;22.25;;;;;14.46;53.64;101490.91;2075255;28;47495;-49
2021/10/18 00:16:16;;;;;;;;;28.00;26.00;;;;;14.44;53.72;101493.63;2075995;28;47572;-53
2021/10/18 00:17:17;;;;;;;;;35.75;31.25;;;;;14.44;53.74;101490.94;2086234;28;47233;-50
2021/10/18 00:18:17;;;;;;;;;34.75;30.50;;;;;14.43;53.53;101486.50;2089263;28;47438;-49
2021/10/18 00:19:18;;;;;;;;;36.25;32.25;;;;;14.45;53.95;101495.38;2086885;28;47084;-51
2021/10/18 00:20:18;;;;;;;;;30.00;28.75;;;;;14.43;53.73;101486.50;2087189;28;48125;-51
2021/10/18 00:21:19;;;;;;;;;33.25;31.25;;;;;14.42;53.90;101485.63;2084720;28;45334;-49
2021/10/18 00:22:20;;;;;;;;;26.25;24.75;;;;;14.41;53.70;101489.19;2086565;28;47211;-52
2021/10/18 00:23:20;;;;;;;;;26.75;26.75;;;;;14.41;53.92;101489.19;2091471;28;47220;-50
2021/10/18 00:24:21;;;;;;;;;29.00;28.75;;;;;14.39;53.81;101491.03;2091310;28;47186;-53
2021/10/18 00:25:21;;;;;;;;;26.75;26.50;;;;;14.40;54.10;101492.78;2082127;28;46668;-50
2021/10/18 00:26:22;;;;;;;;;27.00;25.25;;;;;14.39;53.78;101488.38;2082623;28;47306;-51
2021/10/18 00:27:22;;;;;;;;;22.25;22.25;;;;;14.39;53.86;101488.38;2091212;28;46520;-52
2021/10/18 00:28:23;;;;;;;;;23.75;23.00;;;;;14.38;53.85;101491.97;2089307;28;47294;-50
2021/10/18 00:29:23;;;;;;;;;22.00;20.75;;;;;14.36;54.06;101493.78;2091369;28;47234;-50
2021/10/18 00:30:23;;;;;;;;;27.75;25.00;;;;;14.35;54.02;101492.00;2091878;28;47370;-53
2021/10/18 00:31:24;;;;;;;;;23.75;23.25;;;;;14.35;53.87;101499.16;2092065;28;47109;-48
2021/10/18 00:32:25;;;;;;;;;22.00;21.25;;;;;14.34;54.00;101486.72;2092602;28;46808;-53
2021/10/18 00:33:25;;;;;;;;;28.50;25.25;;;;;14.34;54.25;101492.94;2092178;28;47481;-50
2021/10/18 00:34:26;;;;;;;;;23.25;23.25;;;;;14.34;54.28;101487.59;2092564;28;47260;-53
2021/10/18 00:35:26;;;;;;;;;23.25;21.00;;;;;14.35;54.15;101491.13;2083092;28;48198;-50
2021/10/18 00:36:27;;;;;;;;;26.00;24.25;;;;;14.34;54.27;101490.25;2087969;28;47480;-51
2021/10/18 00:37:27;;;;;;;;;24.50;24.25;;;;;14.34;54.21;101492.94;2092245;28;47410;-51
2021/10/18 00:38:28;;;;;;;;;25.25;23.00;;;;;14.34;54.17;101492.06;2092371;28;47364;-51
2021/10/18 00:39:28;;;;;;;;;25.50;24.25;;;;;14.33;54.15;101485.84;2083175;28;47104;-51
2021/10/18 00:40:29;;;;;;;;;22.25;22.25;;;;;14.33;54.04;101490.31;2083545;28;48278;-52
2021/10/18 00:41:29;;;;;;;;;25.25;22.50;;;;;14.33;54.22;101480.50;2091803;28;48190;-50
2021/10/18 00:42:30;;;;;;;;;23.50;22.50;;;;;14.33;54.18;101482.28;2085695;28;47345;-49
2021/10/18 00:43:30;;;;;;;;;21.00;20.75;;;;;14.33;54.15;101484.97;2081629;28;47500;-51
2021/10/18 00:44:32;;;;;;;;;26.50;22.50;;;;;14.32;54.00;101484.09;2092325;28;47252;-51
2021/10/18 00:45:33;;;;;;;;;24.80;23.60;;;;;14.32;54.42;101483.22;2090801;28;47147;-53
2021/10/18 00:46:34;;;;;;;;;29.60;27.40;;;;;14.32;54.08;101483.22;2087399;28;47375;-51
2021/10/18 00:47:36;;;;;;;;;24.75;24.75;;;;;14.31;54.38;101487.69;2084883;28;48332;-50
2021/10/18 00:48:36;;;;;;;;;22.40;21.00;;;;;14.31;54.18;101492.13;2083320;28;47353;-50
2021/10/18 00:49:37;;;;;;;;;23.00;22.00;;;;;14.31;54.16;101487.69;2083088;28;47744;-51
2021/10/18 00:50:37;;;;;;;;;21.50;19.75;;;;;14.29;53.98;101489.50;2083887;28;47230;-53
2021/10/18 00:51:38;;;;;;;;;24.00;22.00;;;;;14.29;53.98;101491.31;2091924;28;46235;-50
2021/10/18 00:52:39;;;;;;;;;23.50;22.00;;;;;14.28;54.37;101497.56;2092039;28;47284;-52
2021/10/18 00:53:40;;;;;;;;;29.20;25.00;;;;;14.28;54.13;101494.88;2092134;28;47235;-47
2021/10/18 00:54:41;;;;;;;;;24.75;23.50;;;;;14.27;54.19;101494.00;2092186;28;45399;-50
2021/10/18 00:55:41;;;;;;;;;21.40;21.40;;;;;14.26;54.04;101494.06;2092127;28;47364;-52
2021/10/18 00:56:43;;;;;;;;;21.00;19.25;;;;;14.25;54.17;101493.19;2092008;28;47234;-50
2021/10/18 00:57:45;;;;;;;;;23.80;23.80;;;;;14.26;54.29;101494.06;2092149;28;47451;-53
2021/10/18 00:58:47;;;;;;;;;24.60;22.80;;;;;14.24;54.47;101499.44;2092198;28;47432;-54
2021/10/18 00:59:50;;;;;;;;;25.00;22.40;;;;;14.24;54.24;101488.75;2092136;28;46158;-52
2021/10/18 01:00:51;;;;;;;;;23.00;22.80;;;;;14.24;54.13;101490.56;2092135;28;48664;-52
2021/10/18 01:01:53;;;;;;;;;24.75;24.25;;;;;14.24;54.45;101498.56;2091267;28;48216;-52
2021/10/18 01:02:55;;;;;;;;;25.60;24.20;;;;;14.23;54.47;101497.69;2092240;28;45428;-51
2021/10/18 01:03:57;;;;;;;;;25.20;22.80;;;;;14.23;54.49;101500.34;2092221;28;45343;-55
2021/10/18 01:04:59;;;;;;;;;22.80;21.60;;;;;14.22;54.23;101498.56;2092262;28;48068;-52
2021/10/18 01:05:59;;;;;;;;;22.20;21.40;;;;;14.22;54.42;101497.69;2095472;28;48283;-50
2021/10/18 01:07:00;;;;;;;;;28.00;26.50;;;;;14.21;54.45;101501.28;2098711;28;45527;-50
2021/10/18 01:08:00;;;;;;;;;25.25;24.25;;;;;14.21;54.57;101499.50;2092069;28;47584;-52
2021/10/18 01:09:01;;;;;;;;;23.00;22.00;;;;;14.21;54.48;101498.59;2092259;28;48232;-50
2021/10/18 01:10:02;;;;;;;;;23.25;20.75;;;;;14.20;54.36;101502.19;2092088;28;47320;-54
2021/10/18 01:11:03;;;;;;;;;21.60;21.60;;;;;14.19;54.30;101504.00;2091510;28;48183;-51
2021/10/18 01:12:04;;;;;;;;;20.00;19.50;;;;;14.19;54.68;101497.78;2087382;28;47611;-51
2021/10/18 01:13:04;;;;;;;;;25.40;23.80;;;;;14.18;54.42;101499.56;2092118;28;48720;-52
2021/10/18 01:14:07;;;;;;;;;22.25;21.00;;;;;14.18;54.69;101501.34;2094973;28;45248;-49
2021/10/18 01:15:08;;;;;;;;;21.60;21.60;;;;;14.17;54.51;101504.94;2091838;28;48570;-53
2021/10/18 01:16:08;;;;;;;;;26.40;25.20;;;;;14.16;54.26;101509.41;2092115;28;47236;-49
2021/10/18 01:17:09;;;;;;;;;25.25;21.50;;;;;14.16;54.39;101508.53;2083023;28;47370;-53
2021/10/18 01:18:09;;;;;;;;;24.75;23.00;;;;;14.14;54.34;101506.78;2076250;28;48377;-51
2021/10/18 01:19:21;;;;;;;;;22.00;22.00;;;;;14.13;54.47;101501.47;2090067;28;45296;-50
2021/10/18 01:20:33;;;;;;;;;22.80;22.20;;;;;14.13;54.70;101502.34;2092243;28;47330;-51
2021/10/18 01:21:33;;;;;;;;;21.20;20.40;;;;;14.12;54.58;101503.28;2089340;28;48397;-53
2021/10/18 01:22:34;;;;;;;;;22.50;22.00;;;;;14.12;54.68;101502.41;2090357;28;46988;-52
2021/10/18 01:23:34;;;;;;;;;24.00;22.75;;;;;14.12;54.58;101505.06;2091829;28;46391;-50
2021/10/18 01:24:36;;;;;;;;;21.25;20.75;;;;;14.11;54.43;101503.31;2083316;28;47276;-52
2021/10/18 01:25:38;;;;;;;;;24.40;24.20;;;;;14.11;54.48;101500.66;2082857;28;46474;-52
2021/10/18 01:26:39;;;;;;;;;24.40;24.40;;;;;14.10;54.75;101499.78;2092076;28;47189;-52
2021/10/18 01:27:39;;;;;;;;;25.80;24.80;;;;;14.11;54.81;101501.53;2091810;28;48369;-52
2021/10/18 01:28:40;;;;;;;;;20.25;20.00;;;;;14.11;54.66;101504.19;2092147;28;47567;-52
2021/10/18 01:29:41;;;;;;;;;24.75;24.75;;;;;14.11;54.78;101492.63;2091910;28;47149;-51
2021/10/18 01:30:42;;;;;;;;;23.20;22.00;;;;;14.11;54.69;101501.53;2092190;28;47484;-52
2021/10/18 01:31:43;;;;;;;;;22.75;21.50;;;;;14.10;54.53;101493.53;2091901;28;46512;-52
2021/10/18 01:32:43;;;;;;;;;26.25;25.00;;;;;14.10;54.80;101491.75;2083280;28;47327;-56
2021/10/18 01:33:44;;;;;;;;;25.00;24.00;;;;;14.09;54.59;101489.09;2074648;28;47622;-53
2021/10/18 01:34:45;;;;;;;;;24.00;24.00;;;;;14.09;54.91;101499.78;2083302;28;45660;-54
2021/10/18 01:35:46;;;;;;;;;22.75;22.50;;;;;14.08;54.84;101493.56;2092656;28;48045;-49
2021/10/18 01:36:47;;;;;;;;;24.60;23.60;;;;;14.09;54.72;101492.66;2091481;28;48370;-52
2021/10/18 01:37:49;;;;;;;;;20.80;19.80;;;;;14.10;54.68;101493.53;2076472;28;48241;-53
2021/10/18 01:38:50;;;;;;;;;24.20;22.60;;;;;14.09;54.92;101491.78;2083364;28;46856;-51
2021/10/18 01:39:51;;;;;;;;;23.60;23.20;;;;;14.09;55.02;101497.97;2091535;28;46996;-50
2021/10/18 01:40:51;;;;;;;;;20.00;20.00;;;;;14.08;54.86;101490.00;2083316;28;47649;-50
2021/10/18 01:41:52;;;;;;;;;17.25;16.25;;;;;14.07;54.74;101494.47;2074401;28;47182;-51
2021/10/18 01:42:53;;;;;;;;;26.25;24.75;;;;;14.07;54.87;101490.94;2077537;28;47364;-50
2021/10/18 01:43:53;;;;;;;;;24.75;23.00;;;;;14.07;54.90;101493.59;2083066;28;47291;-52
2021/10/18 01:44:53;;;;;;;;;26.00;24.75;;;;;14.07;54.87;101494.47;2091864;28;47287;-51
2021/10/18 01:45:54;;;;;;;;;19.50;19.50;;;;;14.07;54.67;101497.16;2089124;28;47096;-52
2021/10/18 01:46:55;;;;;;;;;23.00;23.00;;;;;14.07;55.21;101489.13;2075581;28;47189;-51
2021/10/18 01:47:55;;;;;;;;;22.00;22.00;;;;;14.07;54.95;101485.59;2078755;28;45402;-49
2021/10/18 01:48:56;;;;;;;;;23.75;23.75;;;;;14.06;54.70;101487.38;2092023;28;48111;-49
2021/10/18 01:49:56;;;;;;;;;11.75;10.00;;;;;14.07;54.95;101486.47;2082875;28;48134;-52
2021/10/18 01:50:57;;;;;;;;;24.25;23.00;;;;;14.07;54.85;101482.94;2080478;28;47818;-52
2021/10/18 01:51:58;;;;;;;;;21.80;20.20;;;;;14.08;54.85;101484.69;2082736;28;47899;-50
2021/10/18 01:52:59;;;;;;;;;28.25;24.50;;;;;14.08;54.94;101480.22;2089699;28;48289;-53
2021/10/18 01:53:59;;;;;;;;;22.20;21.20;;;;;14.07;54.82;101475.78;2091816;28;48205;-54
2021/10/18 01:55:00;;;;;;;;;21.75;20.75;;;;;14.07;55.04;101483.81;2091781;28;47427;-49
2021/10/18 01:56:00;;;;;;;;;27.25;24.00;;;;;14.09;55.14;101483.75;2082807;28;48159;-49
2021/10/18 01:57:01;;;;;;;;;21.50;20.50;;;;;14.09;54.99;101476.63;2083103;28;48191;-52
2021/10/18 01:58:01;;;;;;;;;24.50;22.25;;;;;14.09;54.97;101473.97;2091514;28;47145;-54
2021/10/18 01:59:03;;;;;;;;;22.00;21.50;;;;;14.09;55.00;101476.63;2083018;28;46976;-54
2021/10/18 02:00:04;;;;;;;;;26.60;23.80;;;;;14.09;54.85;101473.97;2082878;28;48215;-53
2021/10/18 02:01:05;;;;;;;;;23.20;21.60;;;;;14.09;54.94;101473.97;2091805;28;47559;-50
2021/10/18 02:02:05;;;;;;;;;23.50;21.75;;;;;14.10;55.01;101473.06;2092065;28;47419;-50
2021/10/18 02:03:06;;;;;;;;;21.50;21.00;;;;;14.10;54.85;101472.16;2082761;28;47238;-52
2021/10/18 02:04:06;;;;;;;;;24.00;21.50;;;;;14.10;54.89;101472.16;2074883;28;47348;-52
2021/10/18 02:05:07;;;;;;;;;22.75;20.00;;;;;14.10;54.93;101470.41;2074471;28;47269;-50
2021/10/18 02:06:11;;;;;;;;;22.00;21.25;;;;;14.11;55.08;101471.28;2091786;28;46163;-52
2021/10/18 02:07:11;;;;;;;;;22.00;20.20;;;;;14.11;54.91;101471.28;2082479;28;45257;-54
2021/10/18 02:08:12;;;;;;;;;21.50;21.50;;;;;14.11;54.75;101476.63;2074882;28;47464;-50
2021/10/18 02:09:12;;;;;;;;;26.75;23.75;;;;;14.10;54.60;101477.50;2066176;28;47121;-51
2021/10/18 02:10:13;;;;;;;;;23.00;23.00;;;;;14.10;55.04;101482.84;2068512;28;45371;-52
2021/10/18 02:11:14;;;;;;;;;26.20;26.00;;;;;14.11;55.02;101484.63;2078435;28;46987;-51
2021/10/18 02:12:15;;;;;;;;;21.25;21.25;;;;;14.10;55.02;101480.19;2080190;28;48172;-51
2021/10/18 02:13:15;;;;;;;;;24.75;22.00;;;;;14.09;54.91;101471.28;2082361;28;47180;-51
2021/10/18 02:14:16;;;;;;;;;22.50;21.00;;;;;14.10;54.94;101474.84;2085485;28;47361;-53
2021/10/18 02:15:17;;;;;;;;;25.75;25.50;;;;;14.11;54.87;101481.97;2091415;28;47721;-52
2021/10/18 02:16:17;;;;;;;;;24.80;23.60;;;;;14.10;54.93;101472.16;2091790;28;48312;-52
2021/10/18 02:17:18;;;;;;;;;23.75;21.50;;;;;14.09;54.86;101478.44;2082694;28;48133;-50
2021/10/18 02:18:19;;;;;;;;;23.25;22.25;;;;;14.08;55.14;101472.22;2066625;28;45694;-52
2021/10/18 02:19:19;;;;;;;;;21.75;19.75;;;;;14.08;55.06;101471.34;2081950;28;46265;-49
2021/10/18 02:20:19;;;;;;;;;22.50;22.25;;;;;14.07;55.14;101464.25;2089202;28;45365;-57
2021/10/18 02:21:20;;;;;;;;;22.75;21.00;;;;;14.05;54.96;101469.63;2075143;28;46614;-54
2021/10/18 02:22:20;;;;;;;;;23.75;21.75;;;;;14.05;55.10;101480.31;2082767;28;47545;-52
2021/10/18 02:23:21;;;;;;;;;24.25;22.50;;;;;14.05;54.83;101468.75;2091535;28;45675;-53
2021/10/18 02:24:21;;;;;;;;;20.50;20.50;;;;;14.04;55.11;101475.00;2091616;28;47960;-52
2021/10/18 02:25:22;;;;;;;;;23.25;23.25;;;;;14.04;54.88;101467.00;2091515;28;47071;-53
2021/10/18 02:26:23;;;;;;;;;21.00;19.75;;;;;14.02;55.11;101468.81;2091594;28;48089;-50
2021/10/18 02:27:23;;;;;;;;;23.25;21.25;;;;;14.01;55.17;101467.06;2091524;28;46346;-52
2021/10/18 02:28:24;;;;;;;;;23.75;21.50;;;;;14.01;54.93;101467.06;2082738;28;47811;-52
2021/10/18 02:29:25;;;;;;;;;21.75;21.75;;;;;14.01;55.07;101475.09;2082863;28;46650;-53
2021/10/18 02:30:25;;;;;;;;;19.50;18.00;;;;;14.00;55.01;101465.31;2091649;28;45389;-53
2021/10/18 02:31:26;;;;;;;;;18.00;17.25;;;;;13.99;55.19;101472.47;2091653;28;47246;-51
2021/10/18 02:32:26;;;;;;;;;23.50;22.25;;;;;13.99;55.33;101468.91;2091733;28;47409;-53
2021/10/18 02:33:26;;;;;;;;;20.25;19.75;;;;;13.97;55.14;101474.25;2082645;28;48469;-49
2021/10/18 02:34:27;;;;;;;;;21.25;19.00;;;;;13.97;55.15;101462.69;2074614;28;48256;-53
2021/10/18 02:35:27;;;;;;;;;21.00;20.00;;;;;13.96;55.42;101460.94;2081941;28;47072;-51
2021/10/18 02:36:28;;;;;;;;;22.25;22.25;;;;;13.96;55.22;101460.94;2093246;28;48310;-52
2021/10/18 02:37:29;;;;;;;;;24.00;21.20;;;;;13.94;55.19;101463.66;2078574;28;47847;-51
2021/10/18 02:38:29;;;;;;;;;20.50;20.50;;;;;13.94;55.11;101462.78;2080308;28;48602;-53
2021/10/18 02:39:30;;;;;;;;;19.00;17.75;;;;;13.93;55.33;101461.91;2089493;28;48356;-49
2021/10/18 02:40:30;;;;;;;;;22.00;21.25;;;;;13.94;55.32;101454.78;2088947;28;47746;-51
2021/10/18 02:41:31;;;;;;;;;22.50;21.50;;;;;13.94;55.38;101452.13;2086485;28;47147;-52
2021/10/18 02:42:31;;;;;;;;;23.50;23.00;;;;;13.94;55.36;101455.66;2077076;28;47252;-48
2021/10/18 02:43:32;;;;;;;;;22.00;22.00;;;;;13.94;55.39;101449.44;2078414;28;48433;-50
2021/10/18 02:44:32;;;;;;;;;20.25;19.25;;;;;13.93;55.12;101443.22;2078107;28;47129;-50
2021/10/18 02:45:33;;;;;;;;;21.00;20.00;;;;;13.94;55.38;101450.31;2077637;28;48094;-48
2021/10/18 02:46:34;;;;;;;;;16.50;16.25;;;;;13.94;55.07;101446.78;2079657;28;47666;-52
2021/10/18 02:47:35;;;;;;;;;24.00;23.50;;;;;13.93;55.38;101442.34;2073388;28;46228;-49
2021/10/18 02:48:36;;;;;;;;;22.80;19.20;;;;;13.92;55.24;101446.81;2074672;28;48428;-48
2021/10/18 02:49:36;;;;;;;;;23.50;21.00;;;;;13.92;55.37;101448.59;2074032;28;48611;-53
2021/10/18 02:50:37;;;;;;;;;20.00;19.00;;;;;13.92;55.38;101457.50;2075695;28;47237;-53
2021/10/18 02:51:38;;;;;;;;;20.50;19.25;;;;;13.91;55.36;101446.84;2075919;28;46217;-51
2021/10/18 02:52:38;;;;;;;;;23.75;23.00;;;;;13.89;55.37;101446.03;2083741;28;46778;-48
2021/10/18 02:53:39;;;;;;;;;24.75;22.75;;;;;13.88;55.47;101447.81;2077392;28;48015;-52
2021/10/18 02:54:39;;;;;;;;;26.75;23.25;;;;;13.89;55.61;101451.34;2073837;28;47510;-51
2021/10/18 02:55:40;;;;;;;;;21.50;20.00;;;;;13.88;55.53;101441.59;2081133;28;47262;-50
2021/10/18 02:56:40;;;;;;;;;27.00;24.00;;;;;13.88;55.25;101444.25;2082918;28;47984;-51
2021/10/18 02:57:41;;;;;;;;;24.00;24.00;;;;;13.87;55.49;101442.50;2082393;28;46792;-53
2021/10/18 02:58:41;;;;;;;;;24.25;24.25;;;;;13.86;55.61;101440.75;2074578;28;47421;-52
2021/10/18 02:59:42;;;;;;;;;23.50;21.00;;;;;13.83;55.43;101431.88;2082335;28;47460;-49
2021/10/18 03:00:42;;;;;;;;;15.75;15.25;;;;;13.84;55.53;101436.31;2083455;28;46817;-51
2021/10/18 03:01:43;;;;;;;;;19.00;18.50;;;;;13.84;55.67;101432.75;2082975;28;47308;-49
2021/10/18 03:02:43;;;;;;;;;22.00;21.00;;;;;13.83;55.68;101431.88;2083406;28;47421;-49
2021/10/18 03:03:44;;;;;;;;;25.50;23.75;;;;;13.82;55.52;101430.13;2075770;28;46062;-50
2021/10/18 03:04:45;;;;;;;;;20.75;18.50;;;;;13.82;55.70;101438.16;2075199;28;48284;-48
2021/10/18 03:05:46;;;;;;;;;22.80;22.80;;;;;13.82;55.64;101437.28;2074803;28;46146;-50
2021/10/18 03:06:46;;;;;;;;;20.00;20.00;;;;;13.81;55.67;101431.06;2074931;28;46025;-50
2021/10/18 03:07:51;;;;;;;;;18.25;18.25;;;;;13.81;55.30;101430.19;2074473;28;47231;-53
2021/10/18 03:08:53;;;;;;;;;22.60;22.00;;;;;13.80;55.69;101433.75;2075056;28;48467;-50
2021/10/18 03:09:53;;;;;;;;;26.60;23.20;;;;;13.80;55.63;101433.75;2074486;28;47391;-50
2021/10/18 03:10:54;;;;;;;;;21.50;21.50;;;;;13.81;55.56;101430.19;2076605;28;45324;-51
2021/10/18 03:11:54;;;;;;;;;21.50;21.50;;;;;13.79;55.88;101427.56;2074701;28;47278;-53
2021/10/18 03:12:55;;;;;;;;;22.00;18.75;;;;;13.80;55.87;101431.09;2075123;28;47039;-56
2021/10/18 03:13:55;;;;;;;;;19.75;19.25;;;;;13.79;55.81;101427.56;2074783;28;45372;-49
2021/10/18 03:14:56;;;;;;;;;21.75;19.50;;;;;13.80;55.50;101425.75;2074848;28;45294;-49
2021/10/18 03:15:57;;;;;;;;;21.25;20.00;;;;;13.81;55.70;101427.50;2078663;28;45259;-51
2021/10/18 03:16:57;;;;;;;;;20.75;20.50;;;;;13.80;55.78;101428.44;2066051;28;47296;-48
2021/10/18 03:17:58;;;;;;;;;22.50;22.00;;;;;13.79;55.91;101430.22;2074690;28;47394;-51
2021/10/18 03:18:59;;;;;;;;;26.00;25.00;;;;;13.79;55.53;101427.56;2074795;28;47194;-51
2021/10/18 03:19:59;;;;;;;;;24.00;23.25;;;;;13.79;55.72;101429.34;2074090;28;48588;-51
2021/10/18 03:21:00;;;;;;;;;18.75;18.75;;;;;13.79;56.07;101426.69;2077658;28;47192;-50
2021/10/18 03:22:00;;;;;;;;;19.00;18.75;;;;;13.77;55.85;101424.06;2080886;28;48385;-52
2021/10/18 03:23:01;;;;;;;;;19.25;19.25;;;;;13.78;55.91;101427.59;2082869;28;47105;-53
2021/10/18 03:24:02;;;;;;;;;20.75;19.25;;;;;13.78;55.85;101435.59;2081275;28;48113;-51
2021/10/18 03:25:04;;;;;;;;;14.25;14.25;;;;;13.77;55.84;101434.72;2082792;28;47499;-51
2021/10/18 03:26:04;;;;;;;;;20.00;19.00;;;;;13.77;55.78;101431.19;2083338;28;48668;-53
2021/10/18 03:27:05;;;;;;;;;22.00;18.75;;;;;13.76;55.67;101432.97;2084011;28;45611;-51
2021/10/18 03:28:05;;;;;;;;;24.00;22.50;;;;;13.76;55.86;101435.63;2084862;28;48098;-49
2021/10/18 03:29:06;;;;;;;;;21.00;20.00;;;;;13.75;55.70;101436.56;2083721;28;47306;-51
2021/10/18 03:30:07;;;;;;;;;19.25;18.75;;;;;13.76;55.87;101435.63;2075849;28;47847;-49
2021/10/18 03:31:08;;;;;;;;;20.60;20.20;;;;;13.75;55.79;101433.00;2075539;28;47306;-49
2021/10/18 03:32:09;;;;;;;;;21.60;21.20;;;;;13.73;56.01;101435.72;2084029;28;47481;-50
2021/10/18 03:33:09;;;;;;;;;18.00;16.25;;;;;13.74;55.95;101447.25;2084326;28;47084;-53
2021/10/18 03:34:10;;;;;;;;;25.00;20.50;;;;;13.73;56.00;101441.06;2084731;28;46010;-51
2021/10/18 03:35:10;;;;;;;;;20.00;18.75;;;;;13.73;55.87;101443.72;2083169;28;48084;-51
2021/10/18 03:36:11;;;;;;;;;21.25;20.00;;;;;13.73;55.81;101446.38;2082739;28;45492;-51
2021/10/18 03:37:11;;;;;;;;;19.00;17.75;;;;;13.72;55.98;101447.28;2078331;28;48345;-52
2021/10/18 03:38:12;;;;;;;;;18.25;18.25;;;;;13.73;56.04;101445.50;2079973;28;45169;-52
2021/10/18 03:39:12;;;;;;;;;21.50;16.75;;;;;13.72;55.70;101449.97;2081661;28;47943;-50
2021/10/18 03:40:13;;;;;;;;;19.00;17.75;;;;;13.72;56.04;101444.63;2079698;28;48318;-54
2021/10/18 03:41:14;;;;;;;;;24.50;23.50;;;;;13.71;56.04;101445.50;2074332;28;47007;-51
2021/10/18 03:42:14;;;;;;;;;20.75;19.25;;;;;13.72;56.11;101436.63;2082740;28;46024;-52
2021/10/18 03:43:15;;;;;;;;;23.75;20.75;;;;;13.71;56.14;101448.19;2084748;28;48247;-52
2021/10/18 03:44:16;;;;;;;;;20.80;20.60;;;;;13.70;56.04;101446.44;2082865;28;47217;-52
2021/10/18 03:45:17;;;;;;;;;21.25;17.75;;;;;13.69;56.02;101441.13;2082661;28;48306;-49
2021/10/18 03:46:17;;;;;;;;;20.75;20.25;;;;;13.69;56.13;101443.81;2080958;28;48360;-53
2021/10/18 03:47:18;;;;;;;;;22.75;21.00;;;;;13.67;56.19;101441.19;2081922;28;46288;-48
2021/10/18 03:48:18;;;;;;;;;21.75;20.25;;;;;13.68;56.01;101450.06;2083944;28;48115;-51
2021/10/18 03:49:19;;;;;;;;;26.25;23.50;;;;;13.66;56.20;101447.41;2083597;28;48132;-52
2021/10/18 03:50:19;;;;;;;;;20.00;19.50;;;;;13.66;56.01;101449.22;2083838;28;47488;-51
2021/10/18 03:51:21;;;;;;;;;19.25;18.75;;;;;13.66;56.25;101447.41;2083602;28;47365;-51
2021/10/18 03:52:22;;;;;;;;;20.00;20.00;;;;;13.67;56.17;101454.50;2083927;28;48405;-51
2021/10/18 03:53:23;;;;;;;;;20.60;19.80;;;;;13.67;56.08;101453.63;2084136;28;47366;-53
2021/10/18 03:54:24;;;;;;;;;18.40;17.40;;;;;13.67;56.27;101456.31;2084273;28;48581;-51
2021/10/18 03:55:24;;;;;;;;;21.00;20.75;;;;;13.67;56.26;101456.31;2084315;28;46162;-49
2021/10/18 03:56:25;;;;;;;;;22.00;20.75;;;;;13.68;56.11;101458.06;2084205;28;46235;-51
2021/10/18 03:57:25;;;;;;;;;20.00;19.75;;;;;13.67;56.20;101457.19;2083862;28;46865;-51
2021/10/18 03:58:26;;;;;;;;;18.00;15.75;;;;;13.68;56.18;101461.59;2083789;28;48254;-48
2021/10/18 03:59:27;;;;;;;;;20.00;19.50;;;;;13.68;56.27;101455.38;2079708;28;48346;-52
2021/10/18 04:00:27;;;;;;;;;19.50;19.50;;;;;13.67;56.24;101458.97;2081122;28;47189;-49
2021/10/18 04:01:28;;;;;;;;;24.00;20.50;;;;;13.67;56.35;101458.97;2082772;28;47246;-49
2021/10/18 04:02:28;;;;;;;;;22.25;20.50;;;;;13.67;56.61;101462.50;2084359;28;48182;-50
2021/10/18 04:03:29;;;;;;;;;23.50;21.25;;;;;13.67;56.27;101451.84;2083920;28;45751;-51
2021/10/18 04:04:29;;;;;;;;;22.25;19.75;;;;;13.68;56.28;101463.38;2084167;28;45999;-52
2021/10/18 04:05:30;;;;;;;;;20.25;20.25;;;;;13.70;56.44;101458.88;2083482;28;48563;-51
2021/10/18 04:06:30;;;;;;;;;19.00;19.00;;;;;13.69;56.35;101467.81;2083313;28;48186;-52
2021/10/18 04:07:31;;;;;;;;;22.00;21.00;;;;;13.70;56.32;101466.88;2083179;28;47876;-51
2021/10/18 04:08:32;;;;;;;;;23.00;23.00;;;;;13.69;56.47;101463.34;2083748;28;47439;-52
2021/10/18 04:09:33;;;;;;;;;18.80;18.80;;;;;13.70;56.27;101469.56;2083469;28;47552;-50
2021/10/18 04:10:34;;;;;;;;;21.80;21.60;;;;;13.70;56.16;101469.56;2084193;28;48354;-52
2021/10/18 04:11:39;;;;;;;;;17.80;17.20;;;;;13.69;56.39;101459.81;2089442;28;46357;-54
2021/10/18 04:12:39;;;;;;;;;19.40;19.00;;;;;13.70;56.22;101466.88;2084441;28;45445;-52
2021/10/18 04:13:40;;;;;;;;;20.50;19.75;;;;;13.70;56.18;101465.09;2075282;28;48349;-53
2021/10/18 04:14:41;;;;;;;;;22.50;20.00;;;;;13.70;56.24;101464.22;2075389;28;47209;-50
2021/10/18 04:15:41;;;;;;;;;20.75;20.00;;;;;13.71;56.29;101465.97;2075068;28;47255;-51
2021/10/18 04:16:42;;;;;;;;;22.75;22.50;;;;;13.70;56.35;101464.22;2083892;28;45416;-52
2021/10/18 04:17:43;;;;;;;;;25.75;22.75;;;;;13.69;56.40;101468.69;2086824;28;48181;-51
2021/10/18 04:18:43;;;;;;;;;24.25;22.50;;;;;13.70;56.21;101466.88;2090117;28;47243;-51
2021/10/18 04:19:44;;;;;;;;;24.25;23.50;;;;;13.70;56.16;101466.88;2084268;28;46806;-49
2021/10/18 04:20:45;;;;;;;;;20.25;20.00;;;;;13.70;56.12;101467.78;2085525;28;47297;-52
2021/10/18 04:21:45;;;;;;;;;17.80;16.20;;;;;13.70;56.39;101462.44;2088396;28;45600;-52
2021/10/18 04:22:46;;;;;;;;;25.00;23.00;;;;;13.69;56.31;101468.69;2083860;28;48233;-52
2021/10/18 04:23:47;;;;;;;;;18.80;18.40;;;;;13.69;56.40;101468.69;2084139;28;46629;-49
2021/10/18 04:24:48;;;;;;;;;18.25;18.25;;;;;13.69;56.42;101470.47;2084588;28;46558;-53
2021/10/18 04:25:48;;;;;;;;;21.50;20.50;;;;;13.68;56.10;101471.38;2084007;28;47078;-49
2021/10/18 04:26:49;;;;;;;;;21.75;20.00;;;;;13.67;56.37;101470.50;2084050;28;48157;-52
2021/10/18 04:27:49;;;;;;;;;17.25;16.25;;;;;13.66;56.29;101474.09;2084039;28;47692;-52
2021/10/18 04:28:50;;;;;;;;;19.25;18.25;;;;;13.64;56.31;101469.72;2084396;28;48221;-52
2021/10/18 04:29:51;;;;;;;;;20.00;19.00;;;;;13.63;56.48;101476.84;2084002;28;47286;-52
2021/10/18 04:30:52;;;;;;;;;23.20;21.20;;;;;13.63;56.29;101479.50;2084392;28;48125;-53
2021/10/18 04:31:57;;;;;;;;;17.25;17.00;;;;;13.63;56.37;101484.84;2075168;28;47713;-56
2021/10/18 04:32:58;;;;;;;;;18.00;18.00;;;;;13.61;56.31;101470.66;2076452;28;47512;-53
2021/10/18 04:34:00;;;;;;;;;20.75;20.25;;;;;13.61;56.58;101480.47;2083936;28;47093;-50
2021/10/18 04:35:00;;;;;;;;;19.00;18.00;;;;;13.61;56.47;101475.13;2084244;28;46297;-53
2021/10/18 04:36:01;;;;;;;;;18.75;18.75;;;;;13.61;56.56;101477.78;2083218;28;46889;-51
2021/10/18 04:37:01;;;;;;;;;18.50;18.50;;;;;13.61;56.69;101476.00;2083297;28;46684;-53